createdAt,value
2019-03-08T00:00:20.502Z,82.00
2019-03-08T00:02:49.772Z,82.20
2019-03-08T00:05:19.302Z,82.30
2019-03-08T00:07:48.598Z,82.70
2019-03-08T00:10:17.896Z,82.80
2019-03-08T00:12:47.143Z,83.00
2019-03-08T00:15:16.643Z,83.20
2019-03-08T00:17:46.030Z,83.30
2019-03-08T00:20:15.342Z,83.20
2019-03-08T00:22:44.657Z,83.50
2019-03-08T00:25:14.442Z,83.30
2019-03-08T00:27:43.774Z,83.50
2019-03-08T00:30:13.232Z,83.80
2019-03-08T00:32:43.186Z,84.30
2019-03-08T00:35:12.501Z,84.30
2019-03-08T00:37:41.813Z,84.30
2019-03-08T00:40:11.231Z,85.10
2019-03-08T00:42:40.465Z,85.00
2019-03-08T00:45:10.548Z,86.00
2019-03-08T00:47:39.889Z,86.00
2019-03-08T00:50:09.275Z,86.00
2019-03-08T00:52:38.574Z,86.60
2019-03-08T00:55:08.049Z,87.20
2019-03-08T00:57:37.338Z,87.30
2019-03-08T01:00:10.897Z,87.50
2019-03-08T01:02:40.231Z,87.50
2019-03-08T01:05:09.933Z,87.90
2019-03-08T01:07:39.226Z,88.00
2019-03-08T01:10:10.873Z,88.20
2019-03-08T01:12:40.150Z,88.50
2019-03-08T01:15:11.093Z,88.60
2019-03-08T01:17:40.314Z,88.60
2019-03-08T01:20:10.853Z,88.70
2019-03-08T01:22:40.163Z,88.60
2019-03-08T01:25:09.625Z,88.70
2019-03-08T01:27:40.561Z,88.90
2019-03-08T01:30:11.270Z,88.70
2019-03-08T01:32:40.507Z,88.60
2019-03-08T01:35:09.729Z,88.60
2019-03-08T01:37:38.962Z,88.70
2019-03-08T01:40:08.573Z,88.70
2019-03-08T01:42:38.416Z,88.60
2019-03-08T01:45:08.263Z,88.30
2019-03-08T01:47:37.572Z,88.10
2019-03-08T01:50:06.954Z,88.00
2019-03-08T01:52:36.272Z,88.00
2019-03-08T01:55:05.693Z,87.90
2019-03-08T01:57:35.009Z,88.20
2019-03-08T02:00:04.952Z,89.30
2019-03-08T02:02:34.170Z,88.80
2019-03-08T02:05:03.593Z,88.90
2019-03-08T02:07:33.329Z,89.00
2019-03-08T02:10:02.714Z,89.30
2019-03-08T02:12:32.011Z,89.60
2019-03-08T02:15:01.238Z,89.70
2019-03-08T02:17:30.566Z,89.50
2019-03-08T02:19:59.805Z,89.60
2019-03-08T02:22:29.469Z,89.40
2019-03-08T02:24:58.786Z,90.00
2019-03-08T02:27:28.022Z,90.40
2019-03-08T02:29:57.306Z,90.70
2019-03-08T02:32:26.562Z,90.90
2019-03-08T02:34:55.799Z,91.10
2019-03-08T02:37:25.167Z,91.10
2019-03-08T02:39:54.644Z,91.20
2019-03-08T02:42:23.878Z,91.50
2019-03-08T02:44:53.132Z,91.40
2019-03-08T02:47:22.375Z,91.60
2019-03-08T02:49:52.160Z,91.70
2019-03-08T02:52:21.392Z,91.70
2019-03-08T02:54:50.644Z,91.50
2019-03-08T02:57:20.053Z,91.70
2019-03-08T02:59:49.367Z,91.70
2019-03-08T03:02:18.683Z,91.70
2019-03-08T03:04:48.015Z,91.70
2019-03-08T03:07:17.320Z,91.80
2019-03-08T03:09:46.626Z,91.90
2019-03-08T03:12:15.858Z,91.90
2019-03-08T03:14:45.081Z,91.90
2019-03-08T03:17:14.564Z,91.80
2019-03-08T03:19:43.852Z,92.10
2019-03-08T03:22:13.087Z,92.00
2019-03-08T03:24:42.364Z,92.00
2019-03-08T03:27:11.594Z,91.90
2019-03-08T03:29:40.841Z,92.10
2019-03-08T03:32:10.158Z,92.20
2019-03-08T03:34:39.378Z,92.50
2019-03-08T03:37:08.608Z,92.80
2019-03-08T03:39:37.922Z,92.80
2019-03-08T03:42:07.214Z,92.90
2019-03-08T03:44:37.131Z,93.10
2019-03-08T03:47:06.478Z,93.10
2019-03-08T03:49:35.705Z,93.10
2019-03-08T03:52:04.938Z,93.30
2019-03-08T03:54:34.261Z,93.50
2019-03-08T03:57:03.817Z,93.50
2019-03-08T03:59:33.428Z,93.50
2019-03-08T04:02:02.765Z,93.50
2019-03-08T04:04:31.986Z,93.50
2019-03-08T04:07:01.267Z,93.50
2019-03-08T04:09:30.508Z,93.90
2019-03-08T04:11:59.876Z,93.70
2019-03-08T04:14:29.160Z,93.60
2019-03-08T04:16:58.490Z,93.50
2019-03-08T04:19:28.028Z,93.40
2019-03-08T04:21:57.341Z,93.30
2019-03-08T04:24:26.569Z,93.10
2019-03-08T04:26:56.055Z,93.00
2019-03-08T04:29:25.279Z,92.90
2019-03-08T04:31:54.587Z,93.10
2019-03-08T04:34:23.934Z,92.70
2019-03-08T04:36:53.196Z,92.60
2019-03-08T04:39:22.423Z,92.40
2019-03-08T04:41:51.671Z,92.40
2019-03-08T04:44:20.930Z,92.30
2019-03-08T04:46:50.610Z,92.30
2019-03-08T04:49:19.914Z,92.20
2019-03-08T04:51:49.248Z,92.20
2019-03-08T04:54:18.514Z,92.10
2019-03-08T04:56:47.863Z,92.20
2019-03-08T04:59:17.089Z,92.10
2019-03-08T05:01:46.875Z,92.10
2019-03-08T05:04:16.190Z,92.10
2019-03-08T05:06:45.403Z,92.00
2019-03-08T05:09:14.837Z,92.00
2019-03-08T05:11:44.082Z,92.00
2019-03-08T05:14:13.314Z,91.90
2019-03-08T05:16:42.555Z,91.90
2019-03-08T05:19:11.780Z,91.90
2019-03-08T05:21:41.083Z,92.20
2019-03-08T05:24:10.823Z,91.70
2019-03-08T05:26:40.066Z,91.70
2019-03-08T05:29:09.370Z,91.70
2019-03-08T05:31:38.688Z,91.60
2019-03-08T05:34:07.920Z,91.70
2019-03-08T05:36:37.433Z,91.80
2019-03-08T05:39:10.904Z,91.80
2019-03-08T05:41:40.141Z,91.70
2019-03-08T05:44:09.446Z,91.60
2019-03-08T05:46:38.707Z,91.60
2019-03-08T05:49:08.014Z,91.40
2019-03-08T05:51:37.425Z,91.50
2019-03-08T05:54:07.330Z,91.40
2019-03-08T05:56:36.810Z,91.60
2019-03-08T05:59:06.174Z,91.40
2019-03-08T06:01:35.983Z,91.50
2019-03-08T06:04:05.224Z,91.40
2019-03-08T06:06:34.447Z,91.40
2019-03-08T06:09:05.130Z,91.30
2019-03-08T06:11:34.636Z,91.20
2019-03-08T06:14:03.938Z,91.10
2019-03-08T06:16:33.236Z,91.10
2019-03-08T06:19:02.592Z,91.10
2019-03-08T06:21:31.950Z,91.00
2019-03-08T06:24:01.450Z,90.90
2019-03-08T06:26:30.725Z,90.70
2019-03-08T06:29:00.720Z,90.60
2019-03-08T06:31:30.111Z,90.40
2019-03-08T06:33:59.407Z,90.30
2019-03-08T06:36:28.670Z,90.30
2019-03-08T06:38:57.899Z,90.10
2019-03-08T06:41:27.193Z,90.00
2019-03-08T06:43:56.462Z,89.90
2019-03-08T06:46:25.783Z,89.80
2019-03-08T06:48:55.409Z,89.60
2019-03-08T06:51:24.661Z,89.30
2019-03-08T06:53:53.978Z,88.80
2019-03-08T06:56:25.592Z,88.80
2019-03-08T06:59:06.092Z,88.60
2019-03-08T07:01:37.982Z,88.30
2019-03-08T07:04:07.215Z,88.10
2019-03-08T07:06:36.527Z,88.00
2019-03-08T07:09:07.670Z,87.40
2019-03-08T07:11:37.413Z,87.20
2019-03-08T07:14:06.994Z,86.70
2019-03-08T07:16:36.244Z,85.80
2019-03-08T07:19:05.467Z,85.40
2019-03-08T07:21:39.104Z,84.90
2019-03-08T07:24:21.227Z,84.60
2019-03-08T07:27:08.171Z,84.30
2019-03-08T07:29:56.451Z,83.50
2019-03-08T07:32:43.523Z,83.40
2019-03-08T07:35:50.399Z,82.90
2019-03-08T07:38:54.154Z,82.20
2019-03-08T07:41:48.665Z,82.20
2019-03-08T07:44:36.963Z,81.40
2019-03-08T07:47:37.417Z,80.70
2019-03-08T07:50:46.899Z,79.60
2019-03-08T07:53:32.332Z,75.80
2019-03-08T07:56:19.607Z,70.30
2019-03-08T07:59:03.956Z,67.00
2019-03-08T08:01:40.757Z,66.60
2019-03-08T08:04:30.538Z,69.20
2019-03-08T08:07:34.249Z,69.90
2019-03-08T08:10:21.342Z,71.90
2019-03-08T08:13:21.662Z,71.30
2019-03-08T08:16:10.146Z,71.70
2019-03-08T08:18:50.491Z,71.70
2019-03-08T08:21:48.083Z,72.10
2019-03-08T08:24:33.686Z,72.20
2019-03-08T08:27:37.504Z,72.10
2019-03-08T08:30:15.173Z,70.70
2019-03-08T08:33:02.071Z,70.20
2019-03-08T08:36:08.662Z,70.00
2019-03-08T08:38:59.725Z,70.30
2019-03-08T08:41:44.675Z,68.90
2019-03-08T08:44:53.074Z,68.70
2019-03-08T08:47:29.319Z,68.50
2019-03-08T08:50:08.683Z,68.00
2019-03-08T08:52:48.977Z,69.10
2019-03-08T08:55:40.039Z,69.00
2019-03-08T08:58:55.338Z,67.70
2019-03-08T09:01:43.688Z,67.50
2019-03-08T09:04:30.026Z,66.90
2019-03-08T09:07:16.905Z,67.70
2019-03-08T09:10:04.341Z,67.40
2019-03-08T09:12:51.479Z,66.60
2019-03-08T09:15:34.301Z,65.80
2019-03-08T09:18:19.135Z,65.70
2019-03-08T09:21:03.311Z,64.50
2019-03-08T09:23:51.581Z,63.60
2019-03-08T09:26:42.922Z,64.40
2019-03-08T09:29:18.165Z,63.00
2019-03-08T09:32:05.210Z,61.80
2019-03-08T09:34:47.996Z,60.70
2019-03-08T09:37:28.287Z,59.70
2019-03-08T09:40:15.447Z,58.70
2019-03-08T09:43:06.610Z,58.40
2019-03-08T09:45:51.945Z,58.20
2019-03-08T09:48:48.811Z,58.20
2019-03-08T09:51:36.329Z,58.90
2019-03-08T09:54:18.202Z,56.90
2019-03-08T09:57:25.217Z,58.10
2019-03-08T10:00:12.215Z,57.90
2019-03-08T10:03:00.493Z,58.20
2019-03-08T10:05:53.674Z,57.70
2019-03-08T10:08:39.652Z,58.70
2019-03-08T10:11:14.184Z,58.50
2019-03-08T10:14:05.283Z,59.00
2019-03-08T10:17:08.563Z,57.90
2019-03-08T10:19:45.992Z,58.10
2019-03-08T10:22:29.705Z,58.90
2019-03-08T10:25:18.092Z,58.20
2019-03-08T10:27:57.084Z,58.60
2019-03-08T10:30:35.982Z,59.20
2019-03-08T10:33:46.247Z,59.30
2019-03-08T10:36:28.209Z,59.00
2019-03-08T10:39:11.981Z,58.00
2019-03-08T10:41:49.810Z,58.30
2019-03-08T10:44:40.175Z,58.50
2019-03-08T10:47:31.574Z,58.30
2019-03-08T10:50:19.654Z,57.90
2019-03-08T10:53:02.063Z,55.90
2019-03-08T10:56:02.241Z,55.70
2019-03-08T10:58:36.977Z,55.50
2019-03-08T11:01:15.076Z,55.70
2019-03-08T11:03:57.493Z,56.80
2019-03-08T11:06:44.322Z,57.00
2019-03-08T11:09:43.323Z,57.20
2019-03-08T11:12:31.597Z,57.40
2019-03-08T11:15:24.219Z,55.30
2019-03-08T11:18:10.141Z,54.50
2019-03-08T11:20:58.005Z,54.10
2019-03-08T11:24:04.524Z,52.80
2019-03-08T11:27:04.575Z,52.80
2019-03-08T11:29:45.421Z,52.80
2019-03-08T11:32:23.354Z,52.10
2019-03-08T11:35:17.194Z,51.60
2019-03-08T11:37:54.598Z,52.50
2019-03-08T11:40:52.085Z,53.20
2019-03-08T11:43:58.519Z,51.90
2019-03-08T11:46:49.587Z,50.90
2019-03-08T11:49:45.449Z,51.80
2019-03-08T11:52:32.440Z,50.80
2019-03-08T11:55:20.909Z,51.90
2019-03-08T11:58:18.418Z,52.10
2019-03-08T12:01:07.717Z,51.60
2019-03-08T12:04:11.190Z,50.60
2019-03-08T12:06:52.783Z,48.60
2019-03-08T12:09:53.123Z,48.30
2019-03-08T12:12:59.463Z,49.20
2019-03-08T12:15:40.062Z,49.70
2019-03-08T12:18:34.322Z,50.60
2019-03-08T12:21:22.593Z,50.50
2019-03-08T12:24:07.174Z,50.00
2019-03-08T12:26:54.529Z,49.60
2019-03-08T12:29:49.101Z,50.10
2019-03-08T12:32:33.695Z,49.40
2019-03-08T12:35:21.993Z,48.50
2019-03-08T12:38:05.814Z,48.90
2019-03-08T12:40:54.113Z,46.60
2019-03-08T12:43:40.855Z,46.90
2019-03-08T12:46:28.010Z,47.90
2019-03-08T12:49:09.857Z,47.90
2019-03-08T12:51:56.440Z,48.20
2019-03-08T12:54:47.555Z,48.10
2019-03-08T12:57:40.482Z,48.50
2019-03-08T13:00:39.618Z,48.10
2019-03-08T13:03:36.781Z,48.00
2019-03-08T13:06:27.841Z,48.40
2019-03-08T13:09:17.000Z,48.50
2019-03-08T13:11:46.574Z,49.00
2019-03-08T13:14:15.943Z,50.00
2019-03-08T13:16:45.319Z,50.90
2019-03-08T13:19:15.141Z,50.00
2019-03-08T13:21:44.470Z,49.40
2019-03-08T13:24:14.002Z,49.50
2019-03-08T13:26:43.259Z,47.50
2019-03-08T13:29:12.562Z,44.70
2019-03-08T13:31:41.918Z,44.20
2019-03-08T13:34:11.341Z,42.20
2019-03-08T13:36:40.643Z,43.80
2019-03-08T13:39:09.979Z,43.90
2019-03-08T13:41:39.386Z,42.10
2019-03-08T13:44:08.621Z,44.60
2019-03-08T13:46:37.908Z,46.20
2019-03-08T13:49:07.746Z,47.40
2019-03-08T13:51:37.391Z,48.50
2019-03-08T13:54:06.626Z,49.10
2019-03-08T13:56:35.983Z,49.10
2019-03-08T13:59:05.343Z,49.20
2019-03-08T14:01:34.741Z,49.30
2019-03-08T14:04:04.073Z,50.30
2019-03-08T14:06:33.394Z,49.50
2019-03-08T14:09:02.706Z,48.40
2019-03-08T14:11:31.969Z,47.90
2019-03-08T14:14:01.206Z,47.60
2019-03-08T14:16:30.551Z,46.20
2019-03-08T14:18:59.797Z,44.80
2019-03-08T14:21:29.162Z,45.80
2019-03-08T14:23:58.488Z,46.90
2019-03-08T14:26:27.730Z,46.50
2019-03-08T14:28:57.062Z,47.60
2019-03-08T14:31:30.954Z,49.10
2019-03-08T14:34:00.206Z,49.60
2019-03-08T14:36:29.443Z,50.50
2019-03-08T14:38:58.881Z,51.10
2019-03-08T14:41:35.311Z,51.60
2019-03-08T14:44:38.605Z,51.50
2019-03-08T14:47:13.523Z,52.20
2019-03-08T14:49:42.859Z,52.50
2019-03-08T14:52:12.213Z,52.80
2019-03-08T14:54:42.447Z,52.30
2019-03-08T14:57:15.460Z,52.70
2019-03-08T14:59:43.938Z,53.50
2019-03-08T15:02:14.581Z,53.90
2019-03-08T15:04:43.991Z,54.30
2019-03-08T15:07:13.337Z,55.20
2019-03-08T15:09:42.652Z,55.90
2019-03-08T15:12:16.612Z,56.70
2019-03-08T15:14:42.933Z,57.30
2019-03-08T15:17:13.340Z,57.60
2019-03-08T15:19:43.160Z,58.10
2019-03-08T15:22:12.417Z,58.60
2019-03-08T15:24:41.735Z,59.50
2019-03-08T15:27:10.961Z,60.40
2019-03-08T15:29:40.308Z,61.60
2019-03-08T15:32:09.625Z,61.30
2019-03-08T15:34:38.854Z,61.70
2019-03-08T15:37:08.481Z,62.80
2019-03-08T15:39:38.346Z,63.40
2019-03-08T15:42:07.872Z,64.10
2019-03-08T15:44:37.112Z,64.80
2019-03-08T15:47:06.520Z,65.40
2019-03-08T15:49:35.811Z,66.30
2019-03-08T15:52:05.392Z,66.70
2019-03-08T15:54:35.060Z,67.10
2019-03-08T15:57:04.298Z,67.40
2019-03-08T15:59:33.599Z,67.50
2019-03-08T16:02:06.209Z,67.90
2019-03-08T16:04:34.082Z,68.20
2019-03-08T16:07:03.407Z,68.60
2019-03-08T16:09:32.771Z,68.90
2019-03-08T16:12:02.092Z,69.20
2019-03-08T16:14:31.412Z,69.60
2019-03-08T16:17:00.654Z,69.80
2019-03-08T16:19:30.834Z,69.60
2019-03-08T16:22:00.313Z,69.90
2019-03-08T16:24:31.224Z,69.20
2019-03-08T16:27:02.447Z,69.20
2019-03-08T16:29:31.477Z,69.40
2019-03-08T16:32:06.536Z,69.40
2019-03-08T16:34:35.639Z,69.50
2019-03-08T16:37:22.316Z,70.50
2019-03-08T16:40:13.075Z,69.60
2019-03-08T16:42:57.656Z,69.90
2019-03-08T16:45:50.601Z,70.00
2019-03-08T16:48:36.406Z,70.00
2019-03-08T16:51:20.658Z,69.90
2019-03-08T16:53:58.150Z,69.90
2019-03-08T16:56:49.694Z,69.50
2019-03-08T16:59:28.074Z,69.50
2019-03-08T17:02:10.274Z,69.40
2019-03-08T17:04:52.374Z,69.50
2019-03-08T17:07:55.717Z,69.30
2019-03-08T17:10:49.944Z,69.40
2019-03-08T17:13:37.895Z,68.80
2019-03-08T17:16:25.118Z,67.70
2019-03-08T17:19:22.581Z,67.30
2019-03-08T17:21:57.178Z,66.10
2019-03-08T17:24:51.917Z,66.10
2019-03-08T17:27:28.770Z,65.90
2019-03-08T17:30:20.034Z,66.00
2019-03-08T17:33:11.322Z,66.00
2019-03-08T17:35:58.258Z,66.30
2019-03-08T17:39:02.281Z,66.40
2019-03-08T17:42:05.623Z,66.60
2019-03-08T17:44:48.998Z,67.00
2019-03-08T17:47:22.848Z,67.50
2019-03-08T17:50:26.236Z,67.70
2019-03-08T17:53:20.433Z,68.00
2019-03-08T17:56:12.738Z,68.60
2019-03-08T17:59:06.535Z,69.10
2019-03-08T18:01:42.343Z,69.60
2019-03-08T18:04:28.423Z,70.00
2019-03-08T18:07:22.913Z,70.20
2019-03-08T18:10:14.206Z,70.50
2019-03-08T18:13:02.794Z,70.80
2019-03-08T18:15:54.609Z,71.20
2019-03-08T18:18:49.951Z,71.50
2019-03-08T18:21:39.994Z,71.60
2019-03-08T18:24:28.848Z,71.40
2019-03-08T18:27:12.782Z,71.60
2019-03-08T18:29:51.899Z,71.80
2019-03-08T18:32:43.243Z,71.60
2019-03-08T18:35:31.879Z,71.60
2019-03-08T18:38:13.387Z,72.20
2019-03-08T18:41:01.700Z,71.80
2019-03-08T18:44:02.213Z,71.80
2019-03-08T18:46:50.198Z,71.80
2019-03-08T18:49:37.427Z,71.90
2019-03-08T18:52:24.648Z,72.10
2019-03-08T18:55:01.359Z,72.10
2019-03-08T18:57:48.494Z,72.20
2019-03-08T19:00:35.682Z,72.60
2019-03-08T19:03:15.259Z,72.70
2019-03-08T19:06:06.731Z,72.80
2019-03-08T19:08:55.152Z,72.90
2019-03-08T19:11:53.051Z,72.60
2019-03-08T19:14:50.442Z,72.30
2019-03-08T19:17:50.897Z,72.10
2019-03-08T19:20:37.691Z,71.60
2019-03-08T19:23:37.258Z,71.70
2019-03-08T19:26:22.939Z,71.60
2019-03-08T19:29:10.146Z,71.50
2019-03-08T19:31:48.460Z,71.30
2019-03-08T19:34:47.687Z,72.10
2019-03-08T19:37:39.162Z,76.00
2019-03-08T19:40:24.855Z,77.70
2019-03-08T19:43:11.610Z,78.30
2019-03-08T19:45:55.393Z,77.90
2019-03-08T19:48:43.735Z,78.40
2019-03-08T19:51:44.647Z,79.30
2019-03-08T19:54:38.947Z,80.60
2019-03-08T19:57:25.839Z,83.10
2019-03-08T20:00:14.187Z,84.60
2019-03-08T20:02:54.839Z,85.30
2019-03-08T20:05:39.489Z,85.00
2019-03-08T20:08:27.032Z,84.20
2019-03-08T20:11:05.270Z,82.60
2019-03-08T20:14:02.404Z,83.60
2019-03-08T20:17:06.166Z,82.60
2019-03-08T20:19:42.886Z,83.00
2019-03-08T20:22:33.993Z,83.70
2019-03-08T20:25:28.186Z,84.30
2019-03-08T20:28:24.019Z,85.10
2019-03-08T20:31:30.589Z,85.90
2019-03-08T20:34:21.754Z,89.30
2019-03-08T20:37:00.470Z,91.40
2019-03-08T20:39:54.788Z,92.30
2019-03-08T20:42:39.736Z,92.60
2019-03-08T20:45:17.479Z,93.60
2019-03-08T20:47:47.113Z,94.40
2019-03-08T20:50:16.488Z,94.40
2019-03-08T20:52:47.525Z,94.80
2019-03-08T20:55:16.875Z,95.00
2019-03-08T20:57:46.251Z,95.00
2019-03-08T21:00:16.701Z,95.20
2019-03-08T21:02:46.087Z,95.20
2019-03-08T21:05:15.392Z,95.20
2019-03-08T21:07:44.788Z,95.40
2019-03-08T21:10:14.126Z,95.40
2019-03-08T21:12:43.426Z,95.70
2019-03-08T21:15:12.763Z,96.10
2019-03-08T21:17:42.087Z,96.20
2019-03-08T21:20:12.195Z,95.80
2019-03-08T21:22:42.070Z,95.70
2019-03-08T21:25:11.693Z,95.90
2019-03-08T21:27:41.038Z,95.90
2019-03-08T21:30:13.769Z,95.90
2019-03-08T21:32:44.896Z,96.30
2019-03-08T21:35:14.419Z,96.00
2019-03-08T21:37:44.058Z,96.00
2019-03-08T21:40:13.425Z,95.90
2019-03-08T21:42:42.798Z,95.80
2019-03-08T21:45:12.636Z,95.90
2019-03-08T21:47:41.971Z,96.10
2019-03-08T21:50:12.803Z,96.00
2019-03-08T21:52:42.068Z,96.10
2019-03-08T21:55:11.862Z,96.30
2019-03-08T21:57:41.122Z,96.30
2019-03-08T22:00:14.555Z,96.60
2019-03-08T22:02:44.300Z,96.70
2019-03-08T22:05:15.173Z,96.60
2019-03-08T22:07:44.502Z,96.80
2019-03-08T22:10:21.651Z,96.80
2019-03-08T22:12:51.030Z,97.20
2019-03-08T22:15:20.366Z,97.00
2019-03-08T22:17:49.834Z,96.90
2019-03-08T22:20:19.514Z,97.10
2019-03-08T22:22:49.256Z,97.10
2019-03-08T22:25:18.547Z,97.20
2019-03-08T22:27:47.863Z,97.20
2019-03-08T22:30:17.231Z,97.20
2019-03-08T22:32:46.551Z,97.20
2019-03-08T22:35:15.795Z,97.20
2019-03-08T22:37:45.079Z,97.20
2019-03-08T22:40:15.533Z,97.60
2019-03-08T22:42:44.895Z,97.30
2019-03-08T22:45:14.338Z,97.40
2019-03-08T22:47:43.557Z,97.40
2019-03-08T22:50:13.206Z,97.40
2019-03-08T22:52:42.420Z,97.50
2019-03-08T22:55:11.931Z,97.40
2019-03-08T22:57:41.271Z,97.40
2019-03-08T23:00:21.796Z,97.50
2019-03-08T23:02:51.887Z,97.70
2019-03-08T23:05:21.291Z,97.70
2019-03-08T23:07:50.541Z,97.60
2019-03-08T23:10:19.795Z,97.70
2019-03-08T23:12:49.115Z,97.70
2019-03-08T23:15:18.507Z,97.80
2019-03-08T23:17:49.061Z,97.90
2019-03-08T23:20:18.342Z,97.80
2019-03-08T23:22:47.658Z,97.90
2019-03-08T23:25:16.964Z,97.90
2019-03-08T23:27:54.933Z,97.90
2019-03-08T23:30:27.506Z,97.80
2019-03-08T23:32:57.249Z,97.90
2019-03-08T23:35:26.518Z,97.90
2019-03-08T23:37:55.947Z,97.90
2019-03-08T23:40:25.292Z,97.90
2019-03-08T23:42:54.594Z,97.90
2019-03-08T23:45:23.826Z,98.10
2019-03-08T23:47:53.106Z,98.20
2019-03-08T23:50:22.334Z,98.30
2019-03-08T23:52:51.563Z,98.30
2019-03-08T23:55:21.170Z,98.30
2019-03-08T23:57:50.477Z,98.50
